createdAt,value
2016-07-02T00:00:55.987Z,1004.13
2016-07-02T00:01:55.976Z,1004.12
2016-07-02T00:02:55.960Z,1004.18
2016-07-02T00:03:55.947Z,1004.18
2016-07-02T00:04:55.929Z,1004.06
2016-07-02T00:05:55.917Z,1004.09
2016-07-02T00:06:55.897Z,1004.05
2016-07-02T00:07:55.885Z,1004.05
2016-07-02T00:08:55.875Z,1004.06
2016-07-02T00:09:55.858Z,1004.04
2016-07-02T00:10:55.844Z,1004.08
2016-07-02T00:11:55.826Z,1004.09
2016-07-02T00:12:55.813Z,1004.08
2016-07-02T00:13:55.798Z,1004.08
2016-07-02T00:14:55.781Z,1004.03
2016-07-02T00:15:55.766Z,1004.07
2016-07-02T00:16:55.753Z,1004.03
2016-07-02T00:17:55.739Z,1004.09
2016-07-02T00:18:55.721Z,1004.12
2016-07-02T00:19:55.707Z,1004.07
2016-07-02T00:20:55.695Z,1004.13
2016-07-02T00:21:55.679Z,1004.14
2016-07-02T00:22:55.664Z,1004.17
2016-07-02T00:23:55.649Z,1004.15
2016-07-02T00:24:55.636Z,1004.2
2016-07-02T00:25:55.618Z,1004.17
2016-07-02T00:26:55.604Z,1004.11
2016-07-02T00:27:55.590Z,1004.07
2016-07-02T00:28:55.573Z,1004.06
2016-07-02T00:29:55.562Z,1003.99
2016-07-02T00:30:55.547Z,1003.98
2016-07-02T00:31:55.528Z,1003.94
2016-07-02T00:32:55.514Z,1003.95
2016-07-02T00:33:55.500Z,1003.94
2016-07-02T00:34:55.487Z,1003.95
2016-07-02T00:35:55.467Z,1003.93
2016-07-02T00:36:55.452Z,1003.95
2016-07-02T00:37:55.442Z,1003.9
2016-07-02T00:38:55.423Z,1003.89
2016-07-02T00:39:55.407Z,1003.84
2016-07-02T00:40:55.397Z,1003.88
2016-07-02T00:41:55.381Z,1003.86
2016-07-02T00:42:55.366Z,1003.87
2016-07-02T00:43:55.352Z,1003.85
2016-07-02T00:44:55.337Z,1003.87
2016-07-02T00:45:55.322Z,1003.89
2016-07-02T00:46:55.309Z,1003.89
2016-07-02T00:47:55.291Z,1003.92
2016-07-02T00:48:55.289Z,1003.91
2016-07-02T00:49:55.261Z,1003.91
2016-07-02T00:50:55.246Z,1003.89
2016-07-02T00:51:55.232Z,1003.94
2016-07-02T00:52:55.217Z,1003.94
2016-07-02T00:53:55.203Z,1004.04
2016-07-02T00:54:55.189Z,1004.01
2016-07-02T00:55:55.171Z,1004.01
2016-07-02T00:56:55.159Z,1004.02
2016-07-02T00:57:55.145Z,1003.97
2016-07-02T00:58:55.128Z,1003.96
2016-07-02T00:59:55.112Z,1003.98
2016-07-02T01:00:55.097Z,1003.92
2016-07-02T01:01:55.083Z,1003.92
2016-07-02T01:02:55.068Z,1003.91
2016-07-02T01:03:55.054Z,1003.95
2016-07-02T01:04:55.037Z,1003.91
2016-07-02T01:05:55.018Z,1003.95
2016-07-02T01:06:55.006Z,1003.96
2016-07-02T01:07:54.991Z,1003.95
2016-07-02T01:08:54.975Z,1003.87
2016-07-02T01:09:54.963Z,1003.81
2016-07-02T01:10:54.946Z,1003.82
2016-07-02T01:11:54.930Z,1003.8
2016-07-02T01:12:54.913Z,1003.81
2016-07-02T01:13:54.899Z,1003.83
2016-07-02T01:14:54.895Z,1003.78
2016-07-02T01:15:54.871Z,1003.77
2016-07-02T01:16:54.854Z,1003.76
2016-07-02T01:17:54.840Z,1003.75
2016-07-02T01:18:54.828Z,1003.74
2016-07-02T01:19:54.810Z,1003.75
2016-07-02T01:20:54.797Z,1003.74
2016-07-02T01:21:54.779Z,1003.72
2016-07-02T01:22:54.764Z,1003.71
2016-07-02T01:23:54.749Z,1003.77
2016-07-02T01:24:54.736Z,1003.73
2016-07-02T01:25:54.720Z,1003.73
2016-07-02T01:26:54.703Z,1003.7
2016-07-02T01:27:54.687Z,1003.69
2016-07-02T01:28:54.671Z,1003.67
2016-07-02T01:29:54.658Z,1003.66
2016-07-02T01:30:54.642Z,1003.74
2016-07-02T01:31:54.628Z,1003.77
2016-07-02T01:32:54.614Z,1003.73
2016-07-02T01:33:54.597Z,1003.76
2016-07-02T01:34:54.581Z,1003.77
2016-07-02T01:35:54.570Z,1003.79
2016-07-02T01:36:54.554Z,1003.76
2016-07-02T01:37:54.535Z,1003.82
2016-07-02T01:38:54.523Z,1003.81
2016-07-02T01:39:54.507Z,1003.81
2016-07-02T01:40:54.495Z,1003.85
2016-07-02T01:41:54.480Z,1003.88
2016-07-02T01:42:54.465Z,1003.85
2016-07-02T01:43:54.451Z,1003.84
2016-07-02T01:44:54.434Z,1003.86
2016-07-02T01:45:54.420Z,1003.85
2016-07-02T01:46:54.403Z,1003.81
2016-07-02T01:47:54.391Z,1003.88
2016-07-02T01:48:54.375Z,1003.88
2016-07-02T01:49:54.361Z,1003.9
2016-07-02T01:50:54.346Z,1003.95
2016-07-02T01:51:54.330Z,1003.95
2016-07-02T01:52:54.312Z,1003.94
2016-07-02T01:53:54.302Z,1003.95
2016-07-02T01:54:54.285Z,1003.95
2016-07-02T01:55:54.273Z,1003.97
2016-07-02T01:56:54.255Z,1003.97
2016-07-02T01:57:54.247Z,1003.94
2016-07-02T01:58:54.222Z,1003.93
2016-07-02T01:59:54.213Z,1003.91
2016-07-02T02:00:54.194Z,1003.98
2016-07-02T02:01:54.182Z,1003.97
2016-07-02T02:02:54.164Z,1003.98
2016-07-02T02:03:54.157Z,1004.04
2016-07-02T02:04:54.133Z,1003.97
2016-07-02T02:05:54.121Z,1003.96
2016-07-02T02:06:54.103Z,1003.98
2016-07-02T02:07:54.085Z,1003.96
2016-07-02T02:08:54.070Z,1003.92
2016-07-02T02:09:54.059Z,1003.91
2016-07-02T02:10:54.040Z,1003.95
2016-07-02T02:11:54.027Z,1003.95
2016-07-02T02:12:54.012Z,1003.98
2016-07-02T02:13:53.999Z,1003.94
2016-07-02T02:14:53.982Z,1004
2016-07-02T02:15:53.968Z,1003.98
2016-07-02T02:16:53.951Z,1003.99
2016-07-02T02:17:53.934Z,1004
2016-07-02T02:18:53.919Z,1003.97
2016-07-02T02:19:53.910Z,1003.95
2016-07-02T02:20:53.892Z,1003.96
2016-07-02T02:21:53.879Z,1003.96
2016-07-02T02:22:53.862Z,1003.95
2016-07-02T02:23:53.845Z,1003.94
2016-07-02T02:24:53.844Z,1003.98
2016-07-02T02:25:53.816Z,1004.02
2016-07-02T02:26:53.802Z,1004.08
2016-07-02T02:27:53.788Z,1004.06
2016-07-02T02:28:53.769Z,1004.12
2016-07-02T02:29:53.755Z,1004.07
2016-07-02T02:30:53.743Z,1004.11
2016-07-02T02:31:53.723Z,1004.08
2016-07-02T02:32:53.708Z,1004.12
2016-07-02T02:33:53.697Z,1004.13
2016-07-02T02:34:53.680Z,1004.18
2016-07-02T02:35:53.665Z,1004.22
2016-07-02T02:36:53.649Z,1004.25
2016-07-02T02:37:53.636Z,1004.32
2016-07-02T02:38:53.619Z,1004.34
2016-07-02T02:39:53.603Z,1004.34
2016-07-02T02:40:53.590Z,1004.33
2016-07-02T02:41:53.575Z,1004.36
2016-07-02T02:42:53.560Z,1004.32
2016-07-02T02:43:53.540Z,1004.34
2016-07-02T02:44:53.527Z,1004.38
2016-07-02T02:45:53.514Z,1004.48
2016-07-02T02:46:53.497Z,1004.52
2016-07-02T02:47:53.481Z,1004.53
2016-07-02T02:48:53.466Z,1004.55
2016-07-02T02:49:53.452Z,1004.53
2016-07-02T02:50:53.435Z,1004.55
2016-07-02T02:51:53.417Z,1004.58
2016-07-02T02:52:53.404Z,1004.59
2016-07-02T02:53:53.387Z,1004.62
2016-07-02T02:54:53.376Z,1004.66
2016-07-02T02:55:53.358Z,1004.66
2016-07-02T02:56:53.345Z,1004.69
2016-07-02T02:57:53.331Z,1004.74
2016-07-02T02:58:53.312Z,1004.75
2016-07-02T02:59:53.295Z,1004.77
2016-07-02T03:00:53.282Z,1004.8
2016-07-02T03:01:53.266Z,1004.87
2016-07-02T03:02:53.254Z,1004.88
2016-07-02T03:03:53.234Z,1004.91
2016-07-02T03:04:53.217Z,1004.94
2016-07-02T03:05:53.204Z,1004.88
2016-07-02T03:06:53.190Z,1004.86
2016-07-02T03:07:53.173Z,1004.88
2016-07-02T03:08:53.158Z,1004.87
2016-07-02T03:09:53.142Z,1004.89
2016-07-02T03:10:53.127Z,1004.93
2016-07-02T03:11:53.126Z,1004.94
2016-07-02T03:12:53.094Z,1004.89
2016-07-02T03:13:53.078Z,1004.87
2016-07-02T03:14:53.065Z,1004.87
2016-07-02T03:15:53.047Z,1004.94
2016-07-02T03:16:53.036Z,1004.9
2016-07-02T03:17:53.021Z,1004.9
2016-07-02T03:18:53.010Z,1004.89
2016-07-02T03:19:52.985Z,1004.85
2016-07-02T03:20:52.973Z,1004.84
2016-07-02T03:21:52.957Z,1004.84
2016-07-02T03:22:52.940Z,1004.82
2016-07-02T03:23:52.923Z,1004.84
2016-07-02T03:24:52.909Z,1004.87
2016-07-02T03:25:52.896Z,1004.87
2016-07-02T03:26:52.879Z,1004.95
2016-07-02T03:27:52.866Z,1004.91
2016-07-02T03:28:52.846Z,1004.84
2016-07-02T03:29:52.835Z,1004.82
2016-07-02T03:30:52.818Z,1004.83
2016-07-02T03:31:52.804Z,1004.83
2016-07-02T03:32:52.783Z,1004.87
2016-07-02T03:33:52.770Z,1004.85
2016-07-02T03:34:52.758Z,1004.89
2016-07-02T03:35:52.741Z,1004.91
2016-07-02T03:36:52.724Z,1004.95
2016-07-02T03:37:52.705Z,1004.97
2016-07-02T03:38:52.691Z,1005.05
2016-07-02T03:39:52.674Z,1005.03
2016-07-02T03:40:52.659Z,1005.03
2016-07-02T03:41:52.645Z,1005.06
2016-07-02T03:42:52.630Z,1005.09
2016-07-02T03:43:52.616Z,1005.06
2016-07-02T03:44:52.600Z,1005.01
2016-07-02T03:45:52.584Z,1005.1
2016-07-02T03:46:52.567Z,1005.15
2016-07-02T03:47:52.551Z,1005.17
2016-07-02T03:48:52.535Z,1005.14
2016-07-02T03:49:52.520Z,1005.15
2016-07-02T03:50:52.503Z,1005.18
2016-07-02T03:51:52.490Z,1005.21
2016-07-02T03:52:52.475Z,1005.19
2016-07-02T03:53:52.458Z,1005.18
2016-07-02T03:54:52.443Z,1005.2
2016-07-02T03:55:52.428Z,1005.16
2016-07-02T03:56:52.417Z,1005.09
2016-07-02T03:57:52.395Z,1005.15
2016-07-02T03:58:52.381Z,1005.14
2016-07-02T03:59:52.367Z,1005.11
2016-07-02T04:00:52.353Z,1005.16
2016-07-02T04:01:52.335Z,1005.14
2016-07-02T04:02:52.319Z,1005.14
2016-07-02T04:03:52.305Z,1005.16
2016-07-02T04:04:52.291Z,1005.15
2016-07-02T04:05:52.275Z,1005.17
2016-07-02T04:06:52.256Z,1005.18
2016-07-02T04:07:52.242Z,1005.25
2016-07-02T04:08:52.225Z,1005.3
2016-07-02T04:09:52.209Z,1005.32
2016-07-02T04:10:52.193Z,1005.34
2016-07-02T04:11:52.183Z,1005.26
2016-07-02T04:12:52.162Z,1005.22
2016-07-02T04:13:52.150Z,1005.26
2016-07-02T04:14:52.132Z,1005.26
2016-07-02T04:15:52.122Z,1005.24
2016-07-02T04:16:52.101Z,1005.28
2016-07-02T04:17:52.089Z,1005.27
2016-07-02T04:18:52.071Z,1005.24
2016-07-02T04:19:52.057Z,1005.23
2016-07-02T04:20:52.043Z,1005.24
2016-07-02T04:21:52.026Z,1005.28
2016-07-02T04:22:52.009Z,1005.35
2016-07-02T04:23:51.996Z,1005.38
2016-07-02T04:24:51.977Z,1005.44
2016-07-02T04:25:51.962Z,1005.51
2016-07-02T04:26:51.944Z,1005.52
2016-07-02T04:27:51.930Z,1005.57
2016-07-02T04:28:51.916Z,1005.55
2016-07-02T04:29:51.898Z,1005.57
2016-07-02T04:30:51.884Z,1005.48
2016-07-02T04:31:51.868Z,1005.47
2016-07-02T04:32:51.857Z,1005.38
2016-07-02T04:33:51.837Z,1005.46
2016-07-02T04:34:51.819Z,1005.43
2016-07-02T04:35:51.805Z,1005.5
2016-07-02T04:36:51.786Z,1005.57
2016-07-02T04:37:51.775Z,1005.68
2016-07-02T04:38:51.760Z,1005.73
2016-07-02T04:39:51.745Z,1005.75
2016-07-02T04:40:51.730Z,1005.78
2016-07-02T04:41:51.714Z,1005.76
2016-07-02T04:42:51.695Z,1005.71
2016-07-02T04:43:51.680Z,1005.63
2016-07-02T04:44:51.676Z,1005.57
2016-07-02T04:45:51.652Z,1005.53
2016-07-02T04:46:51.637Z,1005.59
2016-07-02T04:47:51.617Z,1005.6
2016-07-02T04:48:51.603Z,1005.68
2016-07-02T04:49:51.589Z,1005.65
2016-07-02T04:50:51.574Z,1005.66
2016-07-02T04:51:51.557Z,1005.62
2016-07-02T04:52:51.540Z,1005.66
2016-07-02T04:53:51.525Z,1005.6
2016-07-02T04:54:51.507Z,1005.62
2016-07-02T04:55:51.496Z,1005.58
2016-07-02T04:56:51.478Z,1005.56
2016-07-02T04:57:51.466Z,1005.53
2016-07-02T04:58:51.446Z,1005.58
2016-07-02T04:59:51.433Z,1005.62
2016-07-02T05:00:51.416Z,1005.67
2016-07-02T05:01:51.396Z,1005.67
2016-07-02T05:02:51.380Z,1005.71
2016-07-02T05:03:51.370Z,1005.69
2016-07-02T05:04:51.351Z,1005.64
2016-07-02T05:05:51.334Z,1005.65
2016-07-02T05:06:51.328Z,1005.58
2016-07-02T05:07:51.305Z,1005.48
2016-07-02T05:08:51.288Z,1005.51
2016-07-02T05:09:51.268Z,1005.46
2016-07-02T05:10:51.258Z,1005.49
2016-07-02T05:11:51.242Z,1005.58
2016-07-02T05:12:51.224Z,1005.53
2016-07-02T05:13:51.210Z,1005.54
2016-07-02T05:14:51.193Z,1005.59
2016-07-02T05:15:51.177Z,1005.61
2016-07-02T05:16:51.162Z,1005.57
2016-07-02T05:17:51.144Z,1005.57
2016-07-02T05:18:51.131Z,1005.58
2016-07-02T05:19:51.115Z,1005.53
2016-07-02T05:20:51.102Z,1005.54
2016-07-02T05:21:51.084Z,1005.5
2016-07-02T05:22:51.069Z,1005.46
2016-07-02T05:23:51.051Z,1005.47
2016-07-02T05:24:51.034Z,1005.51
2016-07-02T05:25:51.019Z,1005.51
2016-07-02T05:26:51.006Z,1005.65
2016-07-02T05:27:50.990Z,1005.6
2016-07-02T05:28:50.973Z,1005.67
2016-07-02T05:29:50.955Z,1005.71
2016-07-02T05:30:50.942Z,1005.7
2016-07-02T05:31:50.928Z,1005.66
2016-07-02T05:32:50.907Z,1005.7
2016-07-02T05:33:50.897Z,1005.68
2016-07-02T05:34:50.880Z,1005.65
2016-07-02T05:35:50.866Z,1005.6
2016-07-02T05:36:50.847Z,1005.62
2016-07-02T05:37:50.831Z,1005.61
2016-07-02T05:38:50.814Z,1005.67
2016-07-02T05:39:50.801Z,1005.66
2016-07-02T05:40:50.785Z,1005.71
2016-07-02T05:41:50.769Z,1005.69
2016-07-02T05:42:50.752Z,1005.69
2016-07-02T05:43:50.736Z,1005.68
2016-07-02T05:44:50.720Z,1005.69
2016-07-02T05:45:50.703Z,1005.6
2016-07-02T05:46:50.687Z,1005.67
2016-07-02T05:47:50.672Z,1005.72
2016-07-02T05:48:50.655Z,1005.81
2016-07-02T05:49:50.644Z,1005.87
2016-07-02T05:50:50.624Z,1005.8
2016-07-02T05:51:50.610Z,1005.85
2016-07-02T05:52:50.595Z,1005.85
2016-07-02T05:53:50.576Z,1005.85
2016-07-02T05:54:50.561Z,1005.86
2016-07-02T05:55:50.544Z,1005.85
2016-07-02T05:56:50.533Z,1005.84
2016-07-02T05:57:50.514Z,1005.85
2016-07-02T05:58:50.496Z,1005.88
2016-07-02T05:59:50.482Z,1005.91
2016-07-02T06:00:50.462Z,1005.84
2016-07-02T06:01:50.455Z,1005.84
2016-07-02T06:02:50.435Z,1005.82
2016-07-02T06:03:50.418Z,1005.81
2016-07-02T06:04:50.401Z,1005.83
2016-07-02T06:05:50.386Z,1005.85
2016-07-02T06:06:50.370Z,1005.79
2016-07-02T06:07:50.356Z,1005.81
2016-07-02T06:08:50.340Z,1005.85
2016-07-02T06:09:50.324Z,1005.92
2016-07-02T06:10:50.306Z,1005.89
2016-07-02T06:11:50.296Z,1005.96
2016-07-02T06:12:50.273Z,1006
2016-07-02T06:13:50.257Z,1006.06
2016-07-02T06:14:50.244Z,1006.05
2016-07-02T06:15:50.228Z,1006.05
2016-07-02T06:16:50.209Z,1006.11
2016-07-02T06:17:50.199Z,1006.15
2016-07-02T06:18:50.179Z,1006.17
2016-07-02T06:19:50.165Z,1006.14
2016-07-02T06:20:50.147Z,1006.2
2016-07-02T06:21:50.134Z,1006.17
2016-07-02T06:22:50.119Z,1006.24
2016-07-02T06:23:50.102Z,1006.25
2016-07-02T06:24:50.085Z,1006.29
2016-07-02T06:25:50.070Z,1006.32
2016-07-02T06:26:50.050Z,1006.27
2016-07-02T06:27:50.037Z,1006.28
2016-07-02T06:28:50.025Z,1006.23
2016-07-02T06:29:50.003Z,1006.21
2016-07-02T06:30:49.986Z,1006.17
2016-07-02T06:31:49.972Z,1006.13
2016-07-02T06:32:49.960Z,1006.08
2016-07-02T06:33:49.942Z,1006.12
2016-07-02T06:34:49.925Z,1006.13
2016-07-02T06:35:49.909Z,1006.19
2016-07-02T06:36:49.890Z,1006.13
2016-07-02T06:37:49.879Z,1006.17
2016-07-02T06:38:49.862Z,1006.21
2016-07-02T06:39:49.849Z,1006.28
2016-07-02T06:40:49.830Z,1006.3
2016-07-02T06:41:49.813Z,1006.26
2016-07-02T06:42:49.800Z,1006.29
2016-07-02T06:43:49.783Z,1006.28
2016-07-02T06:44:49.767Z,1006.33
2016-07-02T06:45:49.751Z,1006.36
2016-07-02T06:46:49.736Z,1006.43
2016-07-02T06:47:49.723Z,1006.44
2016-07-02T06:48:49.701Z,1006.4
2016-07-02T06:49:49.684Z,1006.39
2016-07-02T06:50:49.674Z,1006.38
2016-07-02T06:51:49.651Z,1006.36
2016-07-02T06:52:49.636Z,1006.43
2016-07-02T06:53:49.622Z,1006.31
2016-07-02T06:54:49.610Z,1006.36
2016-07-02T06:55:49.590Z,1006.41
2016-07-02T06:56:49.575Z,1006.43
2016-07-02T06:57:49.557Z,1006.42
2016-07-02T06:58:49.544Z,1006.45
2016-07-02T06:59:49.530Z,1006.47
2016-07-02T07:00:49.510Z,1006.44
2016-07-02T07:01:49.494Z,1006.45
2016-07-02T07:02:49.477Z,1006.37
2016-07-02T07:03:49.462Z,1006.38
2016-07-02T07:04:49.444Z,1006.37
2016-07-02T07:05:49.429Z,1006.41
2016-07-02T07:06:49.412Z,1006.46
2016-07-02T07:07:49.397Z,1006.48
2016-07-02T07:08:49.385Z,1006.57
2016-07-02T07:09:49.369Z,1006.64
2016-07-02T07:10:49.350Z,1006.6
2016-07-02T07:11:49.335Z,1006.58
2016-07-02T07:12:49.317Z,1006.51
2016-07-02T07:13:49.304Z,1006.49
2016-07-02T07:14:49.288Z,1006.48
2016-07-02T07:15:49.271Z,1006.52
2016-07-02T07:16:49.253Z,1006.57
2016-07-02T07:17:49.237Z,1006.54
2016-07-02T07:18:49.219Z,1006.51
2016-07-02T07:19:49.219Z,1006.51
2016-07-02T07:20:49.189Z,1006.57
2016-07-02T07:21:49.174Z,1006.58
2016-07-02T07:22:49.162Z,1006.63
2016-07-02T07:23:49.139Z,1006.64
2016-07-02T07:24:49.130Z,1006.67
2016-07-02T07:25:49.111Z,1006.7
2016-07-02T07:26:49.094Z,1006.76
2016-07-02T07:27:49.077Z,1006.68
2016-07-02T07:28:49.064Z,1006.65
2016-07-02T07:29:49.047Z,1006.62
2016-07-02T07:30:49.029Z,1006.63
2016-07-02T07:31:49.015Z,1006.61
2016-07-02T07:32:48.999Z,1006.67
2016-07-02T07:33:48.983Z,1006.66
2016-07-02T07:34:48.968Z,1006.68
2016-07-02T07:35:48.953Z,1006.71
2016-07-02T07:36:48.934Z,1006.73
2016-07-02T07:37:48.918Z,1006.73
2016-07-02T07:38:48.904Z,1006.75
2016-07-02T07:39:48.888Z,1006.8
2016-07-02T07:40:48.871Z,1006.77
2016-07-02T07:41:48.860Z,1006.81
2016-07-02T07:42:48.836Z,1006.76
2016-07-02T07:43:48.824Z,1006.84
2016-07-02T07:44:48.809Z,1006.79
2016-07-02T07:45:48.792Z,1006.78
2016-07-02T07:46:48.774Z,1006.8
2016-07-02T07:47:48.759Z,1006.77
2016-07-02T07:48:48.743Z,1006.79
2016-07-02T07:49:48.727Z,1006.78
2016-07-02T07:50:48.718Z,1006.77
2016-07-02T07:51:48.694Z,1006.78
2016-07-02T07:52:48.675Z,1006.73
2016-07-02T07:53:48.662Z,1006.78
2016-07-02T07:54:48.648Z,1006.79
2016-07-02T07:55:48.631Z,1006.81
2016-07-02T07:56:48.616Z,1006.76
2016-07-02T07:57:48.599Z,1006.82
2016-07-02T07:58:48.581Z,1006.92
2016-07-02T07:59:48.567Z,1006.88
2016-07-02T08:00:48.549Z,1006.89
2016-07-02T08:01:48.534Z,1006.88
2016-07-02T08:02:48.518Z,1006.93
2016-07-02T08:03:48.502Z,1006.94
2016-07-02T08:04:48.486Z,1006.93
2016-07-02T08:05:48.470Z,1006.87
2016-07-02T08:06:48.453Z,1006.87
2016-07-02T08:07:48.439Z,1006.83
2016-07-02T08:08:48.418Z,1006.88
2016-07-02T08:09:48.404Z,1006.92
2016-07-02T08:10:48.388Z,1006.93
2016-07-02T08:11:48.370Z,1006.98
2016-07-02T08:12:48.358Z,1006.99
2016-07-02T08:13:48.342Z,1007
2016-07-02T08:14:48.325Z,1007.01
2016-07-02T08:15:48.309Z,1006.95
2016-07-02T08:16:48.291Z,1006.97
2016-07-02T08:17:48.275Z,1006.99
2016-07-02T08:18:48.263Z,1007.1
2016-07-02T08:19:48.245Z,1006.97
2016-07-02T08:20:48.226Z,1006.98
2016-07-02T08:21:48.213Z,1006.97
2016-07-02T08:22:48.194Z,1007.01
2016-07-02T08:23:48.180Z,1007.02
2016-07-02T08:24:48.163Z,1006.99
2016-07-02T08:25:48.149Z,1006.98
2016-07-02T08:26:48.129Z,1007
2016-07-02T08:27:48.114Z,1006.99
2016-07-02T08:28:48.099Z,1007.02
2016-07-02T08:29:48.080Z,1007.02
2016-07-02T08:30:48.066Z,1007.05
2016-07-02T08:31:48.049Z,1007.07
2016-07-02T08:32:48.034Z,1007.09
2016-07-02T08:33:48.020Z,1007.06
2016-07-02T08:34:48.002Z,1007.07
2016-07-02T08:35:47.991Z,1007.03
2016-07-02T08:36:47.969Z,1007.03
2016-07-02T08:37:47.952Z,1007
2016-07-02T08:38:47.936Z,1007.01
2016-07-02T08:39:47.925Z,1007.07
2016-07-02T08:40:47.905Z,1007.1
2016-07-02T08:41:47.889Z,1007.1
2016-07-02T08:42:47.873Z,1007.13
2016-07-02T08:43:47.857Z,1007.05
2016-07-02T08:44:47.839Z,1007.14
2016-07-02T08:45:47.826Z,1007.14
2016-07-02T08:46:47.808Z,1007.17
2016-07-02T08:47:47.794Z,1007.14
2016-07-02T08:48:47.774Z,1007.17
2016-07-02T08:49:47.762Z,1007.08
2016-07-02T08:50:47.743Z,1007.15
2016-07-02T08:51:47.733Z,1007.13
2016-07-02T08:52:47.710Z,1007.14
2016-07-02T08:53:47.697Z,1007.16
2016-07-02T08:54:47.678Z,1007.13
2016-07-02T08:55:47.662Z,1007.11
2016-07-02T08:56:47.646Z,1007.14
2016-07-02T08:57:47.628Z,1007.06
2016-07-02T08:58:47.615Z,1007.07
2016-07-02T08:59:47.602Z,1007.03
2016-07-02T09:00:47.581Z,1007
2016-07-02T09:01:47.567Z,1006.95
2016-07-02T09:02:47.547Z,1006.95
2016-07-02T09:03:47.539Z,1007.01
2016-07-02T09:04:47.516Z,1007
2016-07-02T09:05:47.506Z,1007.09
2016-07-02T09:06:47.483Z,1007.09
2016-07-02T09:07:47.470Z,1007.08
2016-07-02T09:08:47.456Z,1007.1
2016-07-02T09:09:47.436Z,1007.1
2016-07-02T09:10:47.421Z,1007.18
2016-07-02T09:11:47.404Z,1007.19
2016-07-02T09:12:47.389Z,1007.15
2016-07-02T09:13:47.374Z,1007.17
2016-07-02T09:14:47.358Z,1007.1
2016-07-02T09:15:47.344Z,1007.06
2016-07-02T09:16:47.326Z,1007.11
2016-07-02T09:17:47.309Z,1007.12
2016-07-02T09:18:47.293Z,1007.08
2016-07-02T09:19:47.276Z,1007.06
2016-07-02T09:20:47.263Z,1007.11
2016-07-02T09:21:47.246Z,1007.09
2016-07-02T09:22:47.232Z,1007.14
2016-07-02T09:23:47.217Z,1007.09
2016-07-02T09:24:47.196Z,1007.2
2016-07-02T09:25:47.184Z,1007.1
2016-07-02T09:26:47.165Z,1007.18
2016-07-02T09:27:47.149Z,1007.13
2016-07-02T09:28:47.132Z,1007.22
2016-07-02T09:29:47.115Z,1007.2
2016-07-02T09:30:47.103Z,1007.17
2016-07-02T09:31:47.086Z,1007.21
2016-07-02T09:32:47.067Z,1007.16
2016-07-02T09:33:47.053Z,1007.12
2016-07-02T09:34:47.036Z,1007.17
2016-07-02T09:35:47.020Z,1007.17
2016-07-02T09:36:47.010Z,1007.19
2016-07-02T09:37:46.988Z,1007.24
2016-07-02T09:38:46.975Z,1007.23
2016-07-02T09:39:46.958Z,1007.24
2016-07-02T09:40:46.942Z,1007.23
2016-07-02T09:41:46.924Z,1007.18
2016-07-02T09:42:46.910Z,1007.24
2016-07-02T09:43:46.893Z,1007.2
2016-07-02T09:44:46.877Z,1007.28
2016-07-02T09:45:46.861Z,1007.31
2016-07-02T09:46:46.843Z,1007.29
2016-07-02T09:47:46.828Z,1007.31
2016-07-02T09:48:46.814Z,1007.27
2016-07-02T09:49:46.799Z,1007.29
2016-07-02T09:50:46.783Z,1007.22
2016-07-02T09:51:46.770Z,1007.24
2016-07-02T09:52:46.747Z,1007.18
2016-07-02T09:53:46.733Z,1007.18
2016-07-02T09:54:46.718Z,1007.13
2016-07-02T09:55:46.704Z,1007.25
2016-07-02T09:56:46.686Z,1007.29
2016-07-02T09:57:46.674Z,1007.24
2016-07-02T09:58:46.655Z,1007.22
2016-07-02T09:59:46.646Z,1007.21
2016-07-02T10:00:46.620Z,1007.22
2016-07-02T10:01:46.603Z,1007.22
2016-07-02T10:02:46.588Z,1007.17
2016-07-02T10:03:46.570Z,1007.2
2016-07-02T10:04:46.560Z,1007.23
2016-07-02T10:05:46.543Z,1007.2
2016-07-02T10:06:46.526Z,1007.19
2016-07-02T10:07:46.512Z,1007.28
2016-07-02T10:08:46.496Z,1007.26
2016-07-02T10:09:46.478Z,1007.21
2016-07-02T10:10:46.470Z,1007.14
2016-07-02T10:11:46.445Z,1007.15
2016-07-02T10:12:46.429Z,1007.14
2016-07-02T10:13:46.415Z,1007.18
2016-07-02T10:14:46.398Z,1007.17
2016-07-02T10:15:46.380Z,1007.11
2016-07-02T10:16:46.374Z,1007.08
2016-07-02T10:17:46.352Z,1007.1
2016-07-02T10:18:46.340Z,1007.09
2016-07-02T10:19:46.318Z,1007.06
2016-07-02T10:20:46.306Z,1007.03
2016-07-02T10:21:46.290Z,1007.08
2016-07-02T10:22:46.272Z,1007.1
2016-07-02T10:23:46.257Z,1007.06
2016-07-02T10:24:46.245Z,1007.14
2016-07-02T10:25:46.225Z,1007.12
2016-07-02T10:26:46.208Z,1007.11
2016-07-02T10:27:46.194Z,1007.08
2016-07-02T10:28:46.182Z,1007.07
2016-07-02T10:29:46.164Z,1007.04
2016-07-02T10:30:46.147Z,1007.09
2016-07-02T10:31:46.138Z,1007.08
2016-07-02T10:32:46.113Z,1007.04
2016-07-02T10:33:46.101Z,1007.05
2016-07-02T10:34:46.086Z,1007.02
2016-07-02T10:35:46.072Z,1006.97
2016-07-02T10:36:46.053Z,1006.99
2016-07-02T10:37:46.038Z,1007
2016-07-02T10:38:46.024Z,1006.97
2016-07-02T10:39:46.007Z,1007.01
2016-07-02T10:40:45.991Z,1007
2016-07-02T10:41:45.972Z,1006.95
2016-07-02T10:42:45.956Z,1006.98
2016-07-02T10:43:45.945Z,1006.91
2016-07-02T10:44:45.927Z,1006.87
2016-07-02T10:45:45.914Z,1006.87
2016-07-02T10:46:45.896Z,1006.94
2016-07-02T10:47:45.883Z,1006.98
2016-07-02T10:48:45.865Z,1006.98
2016-07-02T10:49:45.848Z,1007.01
2016-07-02T10:50:45.831Z,1006.94
2016-07-02T10:51:45.819Z,1007
2016-07-02T10:52:45.805Z,1006.99
2016-07-02T10:53:45.788Z,1007
2016-07-02T10:54:45.770Z,1007.06
2016-07-02T10:55:45.757Z,1007.03
2016-07-02T10:56:45.744Z,1007.05
2016-07-02T10:57:45.725Z,1007.03
2016-07-02T10:58:45.706Z,1007.01
2016-07-02T10:59:45.692Z,1007.01
2016-07-02T11:00:45.679Z,1007.16
2016-07-02T11:01:45.674Z,1007.06
2016-07-02T11:02:45.644Z,1007.08
2016-07-02T11:03:45.631Z,1007.08
2016-07-02T11:04:45.615Z,1007.04
2016-07-02T11:05:45.600Z,1007.05
2016-07-02T11:06:45.583Z,1007.12
2016-07-02T11:07:45.568Z,1006.98
2016-07-02T11:08:45.550Z,1007.05
2016-07-02T11:09:45.537Z,1007.08
2016-07-02T11:10:45.522Z,1007.01
2016-07-02T11:11:45.508Z,1007.04
2016-07-02T11:12:45.487Z,1007.08
2016-07-02T11:13:45.473Z,1007.04
2016-07-02T11:14:45.455Z,1007.02
2016-07-02T11:15:45.443Z,1007.02
2016-07-02T11:16:45.427Z,1007.08
2016-07-02T11:17:45.409Z,1007.03
2016-07-02T11:18:45.397Z,1007.1
2016-07-02T11:19:45.383Z,1007.12
2016-07-02T11:20:45.374Z,1007.09
2016-07-02T11:21:45.349Z,1007.1
2016-07-02T11:22:45.335Z,1007.08
2016-07-02T11:23:45.320Z,1007.1
2016-07-02T11:24:45.305Z,1007.09
2016-07-02T11:25:45.289Z,1007.07
2016-07-02T11:26:45.279Z,1007.12
2016-07-02T11:27:45.257Z,1007.06
2016-07-02T11:28:45.239Z,1007.07
2016-07-02T11:29:45.227Z,1007.12
2016-07-02T11:30:45.209Z,1007.09
2016-07-02T11:31:45.195Z,1007.1
2016-07-02T11:32:45.180Z,1007.15
2016-07-02T11:33:45.163Z,1007.18
2016-07-02T11:34:45.153Z,1007.15
2016-07-02T11:35:45.133Z,1007.21
2016-07-02T11:36:45.118Z,1007.26
2016-07-02T11:37:45.102Z,1007.3
2016-07-02T11:38:45.085Z,1007.36
2016-07-02T11:39:45.081Z,1007.44
2016-07-02T11:40:45.055Z,1007.42
2016-07-02T11:41:45.038Z,1007.38
2016-07-02T11:42:45.023Z,1007.41
2016-07-02T11:43:45.007Z,1007.39
2016-07-02T11:44:44.991Z,1007.41
2016-07-02T11:45:44.977Z,1007.4
2016-07-02T11:46:44.963Z,1007.41
2016-07-02T11:47:44.945Z,1007.37
2016-07-02T11:48:44.927Z,1007.37
2016-07-02T11:49:44.912Z,1007.33
2016-07-02T11:50:44.899Z,1007.31
2016-07-02T11:51:44.885Z,1007.27
2016-07-02T11:52:44.868Z,1007.25
2016-07-02T11:53:44.851Z,1007.27
2016-07-02T11:54:44.839Z,1007.24
2016-07-02T11:55:44.820Z,1007.22
2016-07-02T11:56:44.805Z,1007.21
2016-07-02T11:57:44.794Z,1007.18
2016-07-02T11:58:44.774Z,1007.25
2016-07-02T11:59:44.757Z,1007.21
2016-07-02T12:00:44.743Z,1007.2
2016-07-02T12:01:44.728Z,1007.14
2016-07-02T12:02:44.710Z,1007.17
2016-07-02T12:03:44.701Z,1007.17
2016-07-02T12:04:44.686Z,1007.23
2016-07-02T12:05:44.663Z,1007.19
2016-07-02T12:06:44.648Z,1007.15
2016-07-02T12:07:44.632Z,1007.23
2016-07-02T12:08:44.619Z,1007.12